Saint Teresa, Florida
Current Conditions -  °F | °C
As of 1:53 PM on Tuesday 27 Jan 2015 (Local Time) from KTLH Reporting Station
Clear Clear  
Wind Chill: 66°   Ceiling: Unl
Heat Index: 66°   Visibility: 10mi
Dew Point: 34°   Wind: 13mph
Humidity: 30%   Direction: 310°NW
Pressure: 29.94"   Gusts: 26mph
Location:  30.1572°N, 84.5437°W
Report Text: KTLH 271853Z 31011G23KT 10SM CLR 19/01 A2994 RMK AO2 SLP137 T01890011 $
Loading
Personal Weather Stations






























Interactive Weather Map New forecast layout! Learn more

10-Day Weather Forecast

Advertisements
Track Severe Weather on mobile